Time;durP1;ratioP1;P1;durP2;ratioP2;P2;SDS_P1;SDS_P2;PMS_P1;PMS_P2;Temp;Humidity;BMP_temperature;BMP_pressure;BME280_temperature;BME280_humidity;BME280_pressure;Samples;Min_cycle;Max_cycle;Signal;HPM_P1;HPM_P2
2021/06/05 00:00:28;;;;;;;2.57;2.10;;;26.90;52.30;;;;;;5017443;28;20538;-68
2021/06/05 00:02:55;;;;;;;2.97;2.30;;;26.90;52.30;;;;;;5027933;28;20692;-68
2021/06/05 00:05:24;;;;;;;2.13;1.93;;;26.90;52.40;;;;;;5016127;28;20219;-68
2021/06/05 00:07:52;;;;;;;2.50;2.10;;;26.90;52.40;;;;;;5022737;28;20195;-68
2021/06/05 00:10:29;;;;;;;2.53;2.03;;;26.90;52.40;;;;;;5015400;28;20188;-69
2021/06/05 00:12:56;;;;;;;2.40;2.20;;;26.90;52.40;;;;;;5026705;28;20210;-69
2021/06/05 00:15:34;;;;;;;2.50;2.30;;;26.90;52.40;;;;;;5031011;28;20207;-69
2021/06/05 00:18:01;;;;;;;2.30;2.10;;;26.90;52.40;;;;;;5016968;28;20211;-69
2021/06/05 00:20:30;;;;;;;2.37;2.27;;;26.90;52.40;;;;;;5033501;28;20210;-69
2021/06/05 00:23:00;;;;;;;2.40;2.20;;;26.90;53.00;;;;;;5017758;28;20191;-69
2021/06/05 00:25:29;;;;;;;2.27;2.10;;;26.90;52.40;;;;;;5023181;28;20218;-69
2021/06/05 00:27:56;;;;;;;2.30;2.10;;;26.90;52.40;;;;;;5031066;28;20198;-69
2021/06/05 00:30:24;;;;;;;2.40;2.20;;;26.90;52.40;;;;;;5024564;28;20208;-69
2021/06/05 00:32:52;;;;;;;2.43;2.23;;;26.90;52.50;;;;;;5015660;28;20234;-69
2021/06/05 00:35:20;;;;;;;1.93;1.83;;;26.80;52.40;;;;;;5018831;28;20207;-69
2021/06/05 00:37:47;;;;;;;2.33;2.03;;;26.90;52.50;;;;;;5033910;28;20531;-69
2021/06/05 00:40:15;;;;;;;2.27;2.17;;;26.80;52.40;;;;;;5023964;28;20329;-69
2021/06/05 00:42:42;;;;;;;2.37;2.17;;;26.80;52.50;;;;;;5018064;28;20198;-69
2021/06/05 00:45:12;;;;;;;2.10;1.90;;;26.80;52.40;;;;;;5020289;28;20215;-69
2021/06/05 00:47:39;;;;;;;2.23;2.03;;;26.80;52.40;;;;;;4992785;28;20208;-69
2021/06/05 00:50:08;;;;;;;2.23;2.03;;;26.80;52.50;;;;;;5020474;28;20198;-69
2021/06/05 00:52:35;;;;;;;2.10;1.90;;;26.80;52.50;;;;;;5027394;28;20191;-69
2021/06/05 00:55:05;;;;;;;2.27;2.07;;;26.80;52.50;;;;;;5013503;28;20196;-68
2021/06/05 00:57:32;;;;;;;3.87;2.20;;;26.80;52.50;;;;;;5016292;28;20653;-68
2021/06/05 00:59:59;;;;;;;2.37;2.17;;;26.80;52.50;;;;;;5013769;28;20200;-68
2021/06/05 01:02:26;;;;;;;2.27;2.07;;;26.70;52.50;;;;;;5018766;28;20538;-68
2021/06/05 01:04:53;;;;;;;1.97;1.87;;;26.80;53.10;;;;;;5028812;28;20235;-68
2021/06/05 01:07:25;;;;;;;2.17;1.97;;;26.70;52.40;;;;;;5014990;28;20210;-68
2021/06/05 01:10:11;;;;;;;2.90;1.90;;;26.80;52.50;;;;;;5027368;28;20210;-68
2021/06/05 01:13:07;;;;;;;2.03;1.93;;;26.70;52.40;;;;;;5016070;28;20200;-69
2021/06/05 01:15:46;;;;;;;1.83;1.73;;;26.70;52.40;;;;;;5014937;28;20208;-69
2021/06/05 01:18:29;;;;;;;2.23;2.03;;;26.70;52.40;;;;;;5023350;28;20252;-69
2021/06/05 01:21:09;;;;;;;2.40;2.20;;;26.70;52.30;;;;;;5024264;28;20206;-69
2021/06/05 01:23:49;;;;;;;2.33;2.13;;;26.70;52.40;;;;;;5019671;28;20203;-69
2021/06/05 01:26:23;;;;;;;2.00;1.90;;;26.70;52.40;;;;;;5019103;28;20206;-69
2021/06/05 01:29:18;;;;;;;2.13;2.03;;;26.70;52.40;;;;;;5019676;28;20234;-69
2021/06/05 01:31:50;;;;;;;2.30;2.10;;;26.70;52.40;;;;;;5014229;28;20286;-69
2021/06/05 01:34:18;;;;;;;2.23;2.03;;;26.70;52.40;;;;;;5015006;28;20785;-69
2021/06/05 01:36:51;;;;;;;2.33;2.20;;;26.70;52.40;;;;;;5022417;28;20604;-69
2021/06/05 01:39:30;;;;;;;2.23;2.03;;;26.70;52.40;;;;;;5019047;28;20226;-69
2021/06/05 01:42:00;;;;;;;2.30;2.10;;;26.60;52.30;;;;;;5011708;28;20202;-69
2021/06/05 01:44:31;;;;;;;2.60;2.40;;;26.60;52.30;;;;;;5018008;28;20235;-69
2021/06/05 01:46:58;;;;;;;2.20;2.10;;;26.60;52.40;;;;;;5018884;28;20261;-69
2021/06/05 01:49:25;;;;;;;3.30;1.97;;;26.60;52.40;;;;;;5018598;28;20210;-69
2021/06/05 01:51:57;;;;;;;2.30;1.93;;;26.60;52.30;;;;;;5030823;28;20202;-70
2021/06/05 01:54:47;;;;;;;2.20;2.10;;;26.60;52.30;;;;;;5026883;28;20202;-69
2021/06/05 01:57:18;;;;;;;1.90;1.80;;;26.60;52.40;;;;;;5025254;28;20215;-69
2021/06/05 01:59:46;;;;;;;1.97;1.87;;;26.60;52.50;;;;;;5012570;28;20191;-69
2021/06/05 02:02:13;;;;;;;2.03;1.80;;;26.60;52.30;;;;;;5018518;28;20575;-69
2021/06/05 02:04:40;;;;;;;2.00;1.90;;;26.60;52.30;;;;;;5026503;28;20214;-69
2021/06/05 02:07:07;;;;;;;2.63;2.07;;;26.60;52.30;;;;;;5016750;28;20203;-69
2021/06/05 02:09:35;;;;;;;2.00;1.80;;;26.60;52.30;;;;;;5022804;28;20202;-69
2021/06/05 02:12:14;;;;;;;2.00;1.90;;;26.60;52.30;;;;;;5012814;28;20196;-68
2021/06/05 02:14:50;;;;;;;2.30;2.10;;;26.60;52.30;;;;;;5026495;28;20203;-68
2021/06/05 02:17:20;;;;;;;2.30;2.20;;;26.60;52.30;;;;;;5023357;28;20649;-69
2021/06/05 02:19:53;;;;;;;2.27;2.07;;;26.60;52.30;;;;;;5021977;28;20223;-69
2021/06/05 02:22:23;;;;;;;2.00;1.90;;;26.60;52.30;;;;;;5018644;28;20203;-69
2021/06/05 02:24:56;;;;;;;2.00;1.90;;;26.60;52.30;;;;;;5019759;28;20231;-69
2021/06/05 02:27:26;;;;;;;2.23;2.03;;;26.60;52.30;;;;;;5010881;28;20214;-69
2021/06/05 02:29:54;;;;;;;2.37;2.17;;;26.60;52.30;;;;;;5018247;28;20206;-69
2021/06/05 02:32:27;;;;;;;2.10;2.00;;;26.60;52.30;;;;;;5026040;28;20235;-69
2021/06/05 02:34:56;;;;;;;2.27;2.07;;;26.60;52.30;;;;;;5018016;28;20202;-69
2021/06/05 02:37:26;;;;;;;1.83;1.73;;;26.50;52.30;;;;;;5036739;28;20204;-69
2021/06/05 02:39:55;;;;;;;1.80;1.70;;;26.50;52.20;;;;;;5010746;28;20212;-69
2021/06/05 02:42:24;;;;;;;2.03;1.93;;;26.50;52.20;;;;;;5015725;28;20195;-69
2021/06/05 02:44:54;;;;;;;2.57;2.00;;;26.50;52.20;;;;;;5016782;28;20216;-69
2021/06/05 02:47:24;;;;;;;2.03;1.93;;;26.50;52.20;;;;;;5013034;28;20669;-69
2021/06/05 02:49:51;;;;;;;2.33;2.13;;;26.50;52.20;;;;;;5025840;28;20199;-69
2021/06/05 02:52:28;;;;;;;2.17;1.97;;;26.50;52.20;;;;;;5019347;28;20199;-69
2021/06/05 02:55:03;;;;;;;2.23;2.03;;;26.50;52.20;;;;;;5037162;28;20202;-70
2021/06/05 02:57:31;;;;;;;1.90;1.80;;;26.50;52.20;;;;;;5017342;28;20214;-69
2021/06/05 03:00:27;;;;;;;2.23;2.13;;;26.50;52.20;;;;;;5014986;28;20265;-69
2021/06/05 03:02:55;;;;;;;2.00;1.90;;;26.50;52.10;;;;;;5022706;28;20204;-69
2021/06/05 03:05:23;;;;;;;2.10;2.00;;;26.50;52.20;;;;;;5022552;28;20207;-69
2021/06/05 03:07:51;;;;;;;2.07;1.97;;;26.50;52.20;;;;;;5023019;28;20416;-69
2021/06/05 03:10:19;;;;;;;2.20;2.10;;;26.40;52.10;;;;;;5023659;28;20188;-69
2021/06/05 03:12:46;;;;;;;2.10;2.00;;;26.40;52.10;;;;;;5023658;28;20202;-69
2021/06/05 03:15:14;;;;;;;2.00;1.90;;;26.40;52.20;;;;;;5021554;28;20218;-69
2021/06/05 03:17:41;;;;;;;2.17;2.00;;;26.40;52.20;;;;;;5026468;28;20202;-69
2021/06/05 03:20:12;;;;;;;2.00;1.90;;;26.40;52.10;;;;;;5019739;28;20207;-69
2021/06/05 03:22:39;;;;;;;2.07;1.97;;;26.40;52.20;;;;;;5009883;28;20199;-69
2021/06/05 03:25:07;;;;;;;2.10;1.90;;;26.40;52.10;;;;;;5020003;28;20211;-69
2021/06/05 03:27:34;;;;;;;1.97;1.87;;;26.40;52.10;;;;;;5022232;28;20206;-69
2021/06/05 03:30:07;;;;;;;2.73;2.53;;;26.40;52.10;;;;;;5015543;28;20205;-69
2021/06/05 03:32:34;;;;;;;2.00;1.90;;;26.40;52.10;;;;;;5019314;28;20224;-69
2021/06/05 03:35:01;;;;;;;2.10;2.00;;;26.40;52.10;;;;;;5016844;28;20226;-69
2021/06/05 03:37:28;;;;;;;2.10;2.00;;;26.40;52.10;;;;;;5012990;28;20195;-70
2021/06/05 03:39:54;;;;;;;2.43;1.90;;;26.40;52.20;;;;;;5016970;28;20217;-69
2021/06/05 03:42:21;;;;;;;2.10;1.90;;;26.40;52.10;;;;;;5024861;28;20203;-69
2021/06/05 03:44:48;;;;;;;2.40;2.00;;;26.40;52.10;;;;;;5020536;28;20219;-69
2021/06/05 03:47:19;;;;;;;2.10;1.90;;;26.40;52.20;;;;;;5029016;28;20203;-69
2021/06/05 03:49:45;;;;;;;2.00;1.90;;;26.40;52.20;;;;;;5019552;28;20225;-69
2021/06/05 03:52:12;;;;;;;2.13;2.03;;;26.40;52.20;;;;;;5023579;28;20822;-69
2021/06/05 03:54:40;;;;;;;2.10;2.00;;;26.40;52.20;;;;;;5021770;28;20651;-69
2021/06/05 03:57:06;;;;;;;2.90;2.00;;;26.40;52.20;;;;;;5021127;28;20204;-69
2021/06/05 03:59:33;;;;;;;2.17;2.07;;;26.30;52.10;;;;;;5021074;28;20240;-69
2021/06/05 04:02:00;;;;;;;2.60;2.00;;;26.40;52.20;;;;;;5015052;28;20844;-69
2021/06/05 04:04:27;;;;;;;2.30;2.10;;;26.40;52.20;;;;;;5017546;28;20233;-69
2021/06/05 04:06:54;;;;;;;2.73;2.07;;;26.40;52.00;;;;;;5020531;28;20675;-69
2021/06/05 04:09:22;;;;;;;2.40;2.20;;;26.30;52.00;;;;;;5025059;28;20534;-69
2021/06/05 04:11:48;;;;;;;2.57;2.37;;;26.30;52.00;;;;;;5012843;28;20234;-69
2021/06/05 04:14:16;;;;;;;2.60;2.40;;;26.30;52.00;;;;;;5022273;28;20701;-69
2021/06/05 04:16:43;;;;;;;2.80;2.20;;;26.30;52.00;;;;;;5018516;28;20211;-69
2021/06/05 04:19:11;;;;;;;2.43;2.23;;;26.30;52.00;;;;;;5010611;28;20191;-69
2021/06/05 04:21:37;;;;;;;2.80;2.60;;;26.40;52.10;;;;;;5015340;28;20807;-69
2021/06/05 04:24:05;;;;;;;3.07;2.87;;;26.40;52.10;;;;;;5029856;28;20577;-69
2021/06/05 04:26:32;;;;;;;2.70;2.50;;;26.30;52.10;;;;;;4999889;28;20579;-69
2021/06/05 04:28:58;;;;;;;2.90;2.70;;;26.40;52.20;;;;;;5015619;28;20191;-68
2021/06/05 04:31:26;;;;;;;3.00;2.80;;;26.30;52.10;;;;;;5025455;28;20187;-68
2021/06/05 04:33:52;;;;;;;2.87;2.60;;;26.30;52.10;;;;;;5027354;28;20215;-70
2021/06/05 04:36:19;;;;;;;3.63;3.33;;;26.30;52.10;;;;;;5014228;28;20203;-69
2021/06/05 04:38:47;;;;;;;3.13;2.93;;;26.30;52.20;;;;;;5036756;28;20195;-69
2021/06/05 04:41:16;;;;;;;2.93;2.73;;;26.30;52.20;;;;;;5025247;28;20215;-69
2021/06/05 04:43:44;;;;;;;3.17;2.97;;;26.30;52.10;;;;;;5030184;28;20316;-69
2021/06/05 04:46:13;;;;;;;3.03;2.83;;;26.30;52.10;;;;;;5023108;28;20741;-69
2021/06/05 04:48:42;;;;;;;3.23;2.90;;;26.30;52.10;;;;;;5020452;28;20678;-69
2021/06/05 04:51:10;;;;;;;3.10;2.90;;;26.30;52.10;;;;;;5036187;28;20793;-69
2021/06/05 04:53:37;;;;;;;3.87;3.57;;;26.30;52.20;;;;;;5030765;28;20195;-69
2021/06/05 04:56:05;;;;;;;3.20;3.00;;;26.30;52.10;;;;;;5026994;28;20717;-69
2021/06/05 04:58:32;;;;;;;3.70;3.40;;;26.30;52.10;;;;;;5024395;28;20215;-69
2021/06/05 05:01:00;;;;;;;3.33;3.03;;;26.30;52.10;;;;;;5035015;28;20189;-69
2021/06/05 05:03:28;;;;;;;3.80;3.50;;;26.30;52.20;;;;;;5020783;28;20254;-69
2021/06/05 05:06:00;;;;;;;5.17;3.70;;;26.30;52.20;;;;;;5028424;28;20326;-69
2021/06/05 05:08:28;;;;;;;5.43;3.63;;;26.30;52.10;;;;;;5020022;28;20519;-69
2021/06/05 05:10:56;;;;;;;4.40;3.97;;;26.30;52.30;;;;;;5031658;28;20195;-68
2021/06/05 05:13:27;;;;;;;3.77;3.47;;;26.30;52.40;;;;;;5022204;28;20204;-69
2021/06/05 05:15:55;;;;;;;4.73;4.20;;;26.30;52.40;;;;;;5024884;28;20187;-69
2021/06/05 05:18:28;;;;;;;4.70;4.30;;;26.30;52.30;;;;;;5018869;28;20211;-69
2021/06/05 05:20:55;;;;;;;5.30;4.80;;;26.30;52.50;;;;;;5017898;28;20207;-69
2021/06/05 05:23:25;;;;;;;4.80;4.40;;;26.30;52.60;;;;;;5022622;28;20211;-69
2021/06/05 05:25:53;;;;;;;5.07;4.67;;;26.30;52.50;;;;;;5025131;28;20223;-69
2021/06/05 05:28:21;;;;;;;5.90;5.30;;;26.30;52.40;;;;;;5016374;28;20195;-70
2021/06/05 05:30:52;;;;;;;5.30;4.90;;;26.30;52.60;;;;;;5016684;28;20207;-69
2021/06/05 05:33:20;;;;;;;5.43;4.90;;;26.30;52.50;;;;;;5024506;28;20253;-69
2021/06/05 05:35:48;;;;;;;7.37;4.50;;;26.30;52.30;;;;;;5022873;28;20629;-69
2021/06/05 05:38:16;;;;;;;6.10;5.47;;;26.30;52.40;;;;;;5025693;28;20210;-69
2021/06/05 05:40:44;;;;;;;8.60;5.80;;;26.30;53.10;;;;;;5002071;28;20203;-69
2021/06/05 05:43:12;;;;;;;7.07;6.37;;;26.30;53.30;;;;;;5013258;28;20373;-69
2021/06/05 05:45:39;;;;;;;7.70;5.67;;;26.30;53.30;;;;;;5016168;28;20233;-69
2021/06/05 05:48:08;;;;;;;8.63;6.53;;;26.30;53.20;;;;;;5011776;28;20199;-69
2021/06/05 05:50:36;;;;;;;7.10;6.40;;;26.30;53.10;;;;;;5020552;28;20211;-69
2021/06/05 05:53:04;;;;;;;7.60;6.57;;;26.30;53.10;;;;;;5029004;28;20196;-69
2021/06/05 05:55:31;;;;;;;8.10;6.83;;;26.30;53.20;;;;;;5015594;28;20207;-71
2021/06/05 05:58:10;;;;;;;11.47;6.40;;;26.30;53.50;;;;;;5014068;28;20204;-69
2021/06/05 06:00:40;;;;;;;10.03;6.73;;;26.30;53.60;;;;;;5019769;28;20289;-68
2021/06/05 06:03:07;;;;;;;8.33;7.07;;;26.30;53.90;;;;;;5031870;28;20203;-68
2021/06/05 06:05:36;;;;;;;13.07;6.73;;;26.40;54.10;;;;;;5019637;28;20842;-67
2021/06/05 06:08:07;;;;;;;19.07;7.37;;;26.30;54.00;;;;;;5021993;28;20623;-68
2021/06/05 06:10:35;;;;;;;20.57;8.17;;;26.40;54.30;;;;;;5015255;28;20184;-68
2021/06/05 06:13:03;;;;;;;11.33;7.90;;;26.30;54.10;;;;;;5017799;28;20250;-67
2021/06/05 06:15:34;;;;;;;11.87;9.07;;;26.40;54.10;;;;;;5010164;28;20184;-67
2021/06/05 06:18:03;;;;;;;14.30;11.83;;;26.30;54.10;;;;;;5016749;28;20203;-68
2021/06/05 06:20:34;;;;;;;13.03;10.33;;;26.40;54.20;;;;;;5026494;28;20531;-67
2021/06/05 06:23:02;;;;;;;22.13;11.87;;;26.30;54.10;;;;;;5019818;28;20210;-68
2021/06/05 06:25:32;;;;;;;26.43;13.43;;;26.40;54.30;;;;;;5025761;28;20214;-68
2021/06/05 06:28:00;;;;;;;27.83;15.37;;;26.30;54.40;;;;;;5017697;28;20203;-68
2021/06/05 06:30:32;;;;;;;25.27;14.07;;;26.30;54.60;;;;;;5022079;28;20203;-67
2021/06/05 06:33:00;;;;;;;26.50;16.03;;;26.30;54.60;;;;;;5023523;28;20730;-67
2021/06/05 06:35:30;;;;;;;26.10;15.03;;;26.30;54.50;;;;;;5019525;28;20210;-68
2021/06/05 06:37:58;;;;;;;24.17;15.27;;;26.30;54.50;;;;;;5022347;28;20529;-67
2021/06/05 06:40:28;;;;;;;23.53;15.30;;;26.30;54.40;;;;;;5019161;28;20210;-67
2021/06/05 06:42:55;;;;;;;21.37;14.50;;;26.30;54.40;;;;;;5015729;28;20207;-67
2021/06/05 06:45:23;;;;;;;23.30;14.93;;;26.30;54.40;;;;;;5016938;28;20752;-67
2021/06/05 06:47:51;;;;;;;21.13;14.53;;;26.30;54.40;;;;;;5025164;28;20274;-67
2021/06/05 06:50:20;;;;;;;17.37;13.73;;;26.30;54.30;;;;;;5015785;28;20214;-67
2021/06/05 06:52:49;;;;;;;20.17;14.07;;;26.30;54.30;;;;;;5027973;28;20249;-68
2021/06/05 06:55:18;;;;;;;21.53;13.57;;;26.30;54.20;;;;;;5002506;28;20225;-67
2021/06/05 06:57:45;;;;;;;18.93;13.63;;;26.30;54.20;;;;;;5018659;28;20341;-68
2021/06/05 07:00:17;;;;;;;17.40;13.73;;;26.30;54.20;;;;;;5015683;28;20214;-67
2021/06/05 07:02:43;;;;;;;17.53;13.30;;;26.30;54.20;;;;;;5024378;28;20524;-68
2021/06/05 07:05:11;;;;;;;31.77;14.53;;;26.30;54.10;;;;;;5019084;28;20297;-67
2021/06/05 07:07:38;;;;;;;17.20;13.53;;;26.30;54.20;;;;;;5021270;28;20237;-67
2021/06/05 07:10:10;;;;;;;19.70;13.97;;;26.30;54.20;;;;;;5016788;28;20750;-67
2021/06/05 07:12:37;;;;;;;18.53;14.93;;;26.30;54.10;;;;;;5023112;28;20200;-67
2021/06/05 07:15:07;;;;;;;17.80;12.77;;;26.30;54.10;;;;;;5012049;28;20697;-67
2021/06/05 07:17:46;;;;;;;18.30;15.43;;;26.30;54.10;;;;;;5015843;28;20262;-67
2021/06/05 07:20:14;;;;;;;18.73;15.90;;;26.30;54.20;;;;;;5021704;28;20213;-67
2021/06/05 07:22:41;;;;;;;18.50;15.57;;;26.30;54.30;;;;;;5021169;28;20191;-67
2021/06/05 07:25:09;;;;;;;19.20;15.40;;;26.30;54.40;;;;;;5027959;28;20190;-67
2021/06/05 07:27:35;;;;;;;20.67;16.43;;;26.30;54.30;;;;;;5018400;28;20203;-67
2021/06/05 07:30:05;;;;;;;22.07;17.60;;;26.30;54.40;;;;;;5025552;28;20215;-67
2021/06/05 07:32:31;;;;;;;21.17;18.07;;;26.30;54.40;;;;;;5017669;28;20231;-72
2021/06/05 07:34:58;;;;;;;24.77;21.03;;;26.30;56.50;;;;;;4995727;28;20188;-70
2021/06/05 07:37:25;;;;;;;24.47;19.27;;;26.30;57.70;;;;;;5018244;28;20203;-67
2021/06/05 07:39:52;;;;;;;29.00;24.07;;;26.30;58.30;;;;;;5031002;28;20191;-69
2021/06/05 07:42:19;;;;;;;26.33;22.87;;;26.30;57.80;;;;;;5017195;28;20207;-69
2021/06/05 07:44:45;;;;;;;32.83;26.00;;;26.30;58.00;;;;;;5026213;28;20212;-65
2021/06/05 07:47:22;;;;;;;30.30;26.47;;;26.30;57.60;;;;;;5028446;28;20210;-68
2021/06/05 07:49:49;;;;;;;32.37;25.10;;;26.30;57.10;;;;;;5035849;28;20255;-69
2021/06/05 07:52:23;;;;;;;31.27;25.53;;;26.20;56.70;;;;;;5031895;28;20283;-70
2021/06/05 07:54:53;;;;;;;33.17;27.80;;;26.30;56.90;;;;;;5039056;28;20191;-70
2021/06/05 07:57:21;;;;;;;32.97;26.03;;;26.20;56.90;;;;;;5039973;28;20621;-70
2021/06/05 07:59:48;;;;;;;30.23;24.87;;;26.20;57.60;;;;;;5039959;28;20196;-63
2021/06/05 08:02:16;;;;;;;28.73;23.47;;;26.20;58.80;;;;;;5028094;28;20237;-66
2021/06/05 08:04:43;;;;;;;32.70;24.60;;;26.30;59.50;;;;;;5031494;28;20233;-66
2021/06/05 08:07:10;;;;;;;30.20;25.47;;;26.40;59.40;;;;;;5023397;28;20223;-66
2021/06/05 08:09:37;;;;;;;30.17;25.40;;;26.50;59.30;;;;;;5008533;28;20200;-64
2021/06/05 08:12:06;;;;;;;30.57;24.60;;;26.50;59.00;;;;;;5019466;28;20206;-65
2021/06/05 08:14:33;;;;;;;32.17;24.53;;;26.60;58.90;;;;;;5010084;28;20443;-65
2021/06/05 08:17:00;;;;;;;30.73;25.03;;;26.70;58.90;;;;;;5022345;28;20199;-64
2021/06/05 08:19:27;;;;;;;30.27;25.13;;;26.70;59.40;;;;;;5029922;28;20232;-64
2021/06/05 08:21:54;;;;;;;29.93;26.13;;;26.70;59.90;;;;;;5024727;28;20211;-65
2021/06/05 08:24:22;;;;;;;29.53;23.97;;;26.70;60.60;;;;;;5024688;28;20261;-65
2021/06/05 08:26:51;;;;;;;29.63;24.00;;;26.60;60.70;;;;;;5018295;28;20231;-65
2021/06/05 08:29:19;;;;;;;27.83;23.77;;;26.60;61.10;;;;;;5018042;28;20605;-65
2021/06/05 08:31:49;;;;;;;29.50;22.93;;;26.60;61.40;;;;;;5025424;28;20197;-67
2021/06/05 08:34:17;;;;;;;26.93;22.40;;;26.60;61.60;;;;;;5025854;28;20687;-66
2021/06/05 08:36:44;;;;;;;24.80;21.57;;;26.50;61.80;;;;;;5026105;28;20218;-65
2021/06/05 08:39:12;;;;;;;29.07;22.57;;;26.50;61.90;;;;;;5022772;28;20562;-65
2021/06/05 08:41:46;;;;;;;27.93;22.77;;;26.50;62.00;;;;;;5028473;28;20199;-64
2021/06/05 08:44:36;;;;;;;40.07;25.23;;;26.50;61.80;;;;;;5021992;28;20257;-64
2021/06/05 08:47:21;;;;;;;66.20;30.93;;;26.40;62.90;;;;;;5024204;28;20231;-64
2021/06/05 08:49:48;;;;;;;62.63;30.37;;;26.50;63.80;;;;;;5019165;28;20957;-64
2021/06/05 08:52:17;;;;;;;61.63;29.03;;;26.50;63.80;;;;;;5028790;28;20196;-64
2021/06/05 08:54:49;;;;;;;63.20;28.40;;;26.40;63.80;;;;;;5029525;28;20213;-64
2021/06/05 08:57:44;;;;;;;52.63;27.23;;;26.40;63.80;;;;;;5030545;28;20297;-64
2021/06/05 09:00:20;;;;;;;49.17;25.60;;;26.40;63.80;;;;;;5025736;28;20202;-64
2021/06/05 09:02:50;;;;;;;46.87;26.03;;;26.40;63.90;;;;;;5021150;28;20226;-65
2021/06/05 09:05:21;;;;;;;40.53;24.10;;;26.40;64.00;;;;;;5033925;28;20248;-64
2021/06/05 09:07:49;;;;;;;39.10;23.77;;;26.40;63.90;;;;;;5023333;28;20207;-65
2021/06/05 09:10:18;;;;;;;40.30;23.73;;;26.40;63.90;;;;;;5002577;28;20196;-64
2021/06/05 09:12:45;;;;;;;35.93;21.47;;;26.30;63.90;;;;;;5019735;28;20200;-64
2021/06/05 09:15:34;;;;;;;39.20;22.60;;;26.30;63.90;;;;;;5029227;28;20203;-64
2021/06/05 09:18:05;;;;;;;41.07;21.83;;;26.30;64.10;;;;;;5021113;28;20210;-64
2021/06/05 09:21:01;;;;;;;39.73;22.17;;;26.30;63.90;;;;;;5027436;28;20701;-64
2021/06/05 09:23:30;;;;;;;31.30;19.70;;;26.30;64.00;;;;;;5017871;28;20203;-64
2021/06/05 09:26:24;;;;;;;32.67;19.73;;;26.30;64.00;;;;;;5022995;28;20227;-64
2021/06/05 09:29:18;;;;;;;33.60;19.33;;;26.30;64.10;;;;;;5011820;28;20200;-64
2021/06/05 09:32:09;;;;;;;30.53;19.47;;;26.30;64.00;;;;;;5014814;28;20215;-64
2021/06/05 09:34:42;;;;;;;26.87;18.90;;;26.30;64.10;;;;;;5027457;28;20516;-64
2021/06/05 09:37:40;;;;;;;23.27;17.20;;;26.30;64.00;;;;;;5023765;28;20203;-64
2021/06/05 09:40:18;;;;;;;24.20;17.37;;;26.20;64.20;;;;;;5007294;28;20395;-64
2021/06/05 09:42:49;;;;;;;24.57;17.00;;;26.20;64.10;;;;;;5023120;28;20206;-64
2021/06/05 09:45:28;;;;;;;25.53;18.30;;;26.20;64.10;;;;;;5020859;28;20195;-64
2021/06/05 09:48:31;;;;;;;23.43;16.27;;;26.20;64.00;;;;;;5026680;28;20232;-64
2021/06/05 09:51:03;;;;;;;21.67;16.47;;;26.20;63.90;;;;;;5021622;28;20198;-64
2021/06/05 09:53:33;;;;;;;22.97;16.33;;;26.20;64.00;;;;;;5024793;28;20309;-64
2021/06/05 09:56:22;;;;;;;20.77;15.17;;;26.20;64.00;;;;;;5024465;28;20184;-64
2021/06/05 09:59:09;;;;;;;24.27;15.37;;;26.20;63.90;;;;;;5016140;28;20200;-64
2021/06/05 10:01:37;;;;;;;20.87;14.97;;;26.20;64.00;;;;;;5022930;28;20608;-64
2021/06/05 10:04:16;;;;;;;18.93;14.93;;;26.20;63.90;;;;;;5019595;28;20270;-64
2021/06/05 10:06:52;;;;;;;20.87;15.00;;;26.20;64.00;;;;;;5018255;28;20726;-64
2021/06/05 10:09:30;;;;;;;18.07;14.37;;;26.10;63.90;;;;;;5018499;28;20198;-64
2021/06/05 10:12:02;;;;;;;16.37;13.77;;;26.20;63.90;;;;;;5017883;28;20223;-64
2021/06/05 10:14:38;;;;;;;19.30;14.07;;;26.20;63.80;;;;;;5017856;28;20203;-64
2021/06/05 10:17:20;;;;;;;17.27;13.67;;;26.10;63.80;;;;;;5004898;28;20208;-64
2021/06/05 10:19:54;;;;;;;16.87;13.27;;;26.10;63.90;;;;;;5022458;28;20558;-64
2021/06/05 10:22:24;;;;;;;15.63;13.13;;;26.10;63.70;;;;;;5020121;28;20199;-65
2021/06/05 10:25:03;;;;;;;15.70;12.47;;;26.10;63.80;;;;;;5020698;28;20191;-65
2021/06/05 10:27:37;;;;;;;17.63;12.50;;;26.10;63.70;;;;;;5018176;28;20836;-66
2021/06/05 10:30:28;;;;;;;16.07;13.73;;;26.10;63.70;;;;;;5023622;28;20204;-65
2021/06/05 10:32:59;;;;;;;15.73;12.53;;;26.10;63.70;;;;;;5019798;28;20265;-65
2021/06/05 10:35:39;;;;;;;17.03;12.53;;;26.10;63.70;;;;;;5027750;28;20214;-65
2021/06/05 10:38:28;;;;;;;13.10;11.70;;;26.10;63.70;;;;;;5017633;28;20210;-65
2021/06/05 10:40:59;;;;;;;13.90;11.70;;;26.10;63.70;;;;;;4967795;28;20211;-64
2021/06/05 10:43:26;;;;;;;14.57;12.00;;;26.10;63.50;;;;;;5014021;28;20200;-65
2021/06/05 10:45:57;;;;;;;12.83;11.53;;;26.10;63.50;;;;;;5021378;28;20204;-65
2021/06/05 10:48:35;;;;;;;13.83;11.63;;;26.10;63.50;;;;;;5021779;28;20224;-65
2021/06/05 10:51:04;;;;;;;13.03;11.37;;;26.10;63.60;;;;;;5018856;28;20572;-65
2021/06/05 10:53:54;;;;;;;12.83;10.80;;;26.10;63.60;;;;;;5025589;28;20183;-65
2021/06/05 10:56:40;;;;;;;11.87;10.57;;;26.10;63.60;;;;;;5018434;28;20199;-65
2021/06/05 10:59:36;;;;;;;10.70;9.60;;;26.10;63.60;;;;;;5024789;28;20214;-65
2021/06/05 11:02:03;;;;;;;11.57;10.20;;;26.10;63.70;;;;;;5017785;28;20201;-63
2021/06/05 11:04:33;;;;;;;10.43;9.30;;;26.10;63.50;;;;;;5025488;28;20199;-63
2021/06/05 11:07:03;;;;;;;10.73;9.07;;;26.10;63.40;;;;;;5020756;28;20215;-65
2021/06/05 11:09:30;;;;;;;9.73;8.73;;;26.10;63.60;;;;;;5021894;28;20230;-65
2021/06/05 11:12:23;;;;;;;10.73;9.33;;;26.00;63.40;;;;;;5017667;28;20641;-64
2021/06/05 11:14:52;;;;;;;9.93;9.03;;;26.10;63.40;;;;;;5019295;28;20199;-65
2021/06/05 11:17:19;;;;;;;11.77;10.57;;;26.10;63.40;;;;;;5020325;28;20199;-65
2021/06/05 11:20:04;;;;;;;11.87;10.13;;;26.10;63.50;;;;;;5014863;28;20199;-65
2021/06/05 11:22:50;;;;;;;11.20;10.07;;;26.10;63.50;;;;;;5015168;28;20198;-65
2021/06/05 11:25:16;;;;;;;11.27;10.17;;;26.00;63.40;;;;;;5018640;28;20203;-64
2021/06/05 11:27:49;;;;;;;12.50;10.53;;;26.00;63.40;;;;;;5024706;28;20689;-62
2021/06/05 11:30:22;;;;;;;12.03;10.73;;;26.00;63.40;;;;;;5020611;28;20199;-63
2021/06/05 11:32:51;;;;;;;13.30;10.77;;;26.00;63.30;;;;;;5019376;28;20237;-64
2021/06/05 11:35:37;;;;;;;11.00;9.90;;;26.00;63.30;;;;;;5038977;28;20658;-65
2021/06/05 11:38:07;;;;;;;10.57;9.50;;;26.00;63.20;;;;;;5020773;28;20255;-63
2021/06/05 11:41:01;;;;;;;11.30;10.30;;;26.10;63.20;;;;;;5024898;28;20312;-64
2021/06/05 11:43:28;;;;;;;10.20;9.27;;;26.00;63.10;;;;;;5021733;28;20710;-65
2021/06/05 11:46:04;;;;;;;10.73;9.63;;;26.00;63.10;;;;;;5020187;28;20203;-64
2021/06/05 11:48:43;;;;;;;12.33;10.67;;;26.00;63.10;;;;;;5019901;28;20248;-65
2021/06/05 11:51:22;;;;;;;10.97;9.87;;;26.00;63.10;;;;;;5026176;28;20190;-65
2021/06/05 11:53:51;;;;;;;11.00;9.90;;;26.00;63.10;;;;;;5018259;28;20731;-65
2021/06/05 11:56:41;;;;;;;10.60;9.60;;;26.00;63.10;;;;;;5023711;28;20222;-65
2021/06/05 11:59:39;;;;;;;10.80;9.77;;;26.00;63.10;;;;;;5015921;28;20322;-65
2021/06/05 12:02:18;;;;;;;10.53;9.53;;;26.00;62.90;;;;;;5018596;28;20223;-65
2021/06/05 12:04:50;;;;;;;10.07;9.17;;;26.00;62.80;;;;;;5017787;28;20203;-64
2021/06/05 12:07:41;;;;;;;10.53;9.37;;;26.00;62.80;;;;;;5022022;28;20238;-64
2021/06/05 12:10:31;;;;;;;10.03;9.13;;;26.00;62.80;;;;;;5021574;28;20195;-65
2021/06/05 12:12:59;;;;;;;10.20;9.20;;;26.00;62.80;;;;;;5014319;28;20199;-65
2021/06/05 12:15:35;;;;;;;9.70;8.70;;;26.00;62.90;;;;;;5024636;28;20207;-64
2021/06/05 12:18:25;;;;;;;10.33;9.33;;;26.00;62.80;;;;;;5018880;28;20540;-65
2021/06/05 12:20:59;;;;;;;9.40;8.50;;;26.00;62.80;;;;;;5022840;28;20194;-65
2021/06/05 12:23:32;;;;;;;11.33;8.93;;;26.00;62.80;;;;;;5016261;28;20214;-65
2021/06/05 12:26:04;;;;;;;10.43;9.43;;;26.00;62.50;;;;;;5017604;28;20203;-65
2021/06/05 12:28:42;;;;;;;9.90;8.90;;;26.00;62.60;;;;;;5021709;28;20711;-64
2021/06/05 12:31:25;;;;;;;9.53;8.63;;;26.00;62.60;;;;;;5022028;28;20191;-64
2021/06/05 12:34:05;;;;;;;10.03;9.13;;;26.00;62.60;;;;;;5014424;28;20231;-65
2021/06/05 12:36:37;;;;;;;9.40;8.50;;;26.00;62.40;;;;;;5003532;28;20207;-64
2021/06/05 12:39:23;;;;;;;9.67;8.67;;;26.00;62.50;;;;;;5023623;28;20203;-65
2021/06/05 12:41:51;;;;;;;9.77;8.80;;;26.00;62.40;;;;;;5024625;28;20206;-63
2021/06/05 12:44:23;;;;;;;10.20;9.20;;;26.00;62.50;;;;;;5027884;28;20536;-65
2021/06/05 12:46:50;;;;;;;9.83;8.93;;;25.90;62.40;;;;;;5028352;28;20216;-64
2021/06/05 12:49:24;;;;;;;9.97;8.97;;;25.90;62.40;;;;;;5025476;28;20292;-65
2021/06/05 12:51:54;;;;;;;9.80;8.90;;;26.00;62.40;;;;;;5020994;28;20618;-65
2021/06/05 12:54:38;;;;;;;9.63;8.73;;;26.00;62.30;;;;;;5027363;28;20650;-65
2021/06/05 12:57:27;;;;;;;9.47;8.60;;;26.00;62.40;;;;;;5020208;28;20514;-65
2021/06/05 12:59:56;;;;;;;9.83;8.93;;;25.90;62.10;;;;;;5024517;28;20677;-65
2021/06/05 13:02:32;;;;;;;9.80;8.83;;;25.90;62.30;;;;;;5022925;28;20203;-65